sensor_id;sensor_type;location;lat;lon;timestamp;temperature;humidity
21568;DHT22;10944;42.590;12.630;2023-01-29T00:02:17;2.60;99.90
21568;DHT22;10944;42.590;12.630;2023-01-29T00:04:43;2.50;99.90
21568;DHT22;10944;42.590;12.630;2023-01-29T00:07:09;2.40;99.90
21568;DHT22;10944;42.590;12.630;2023-01-29T00:09:37;2.40;99.90
21568;DHT22;10944;42.590;12.630;2023-01-29T00:12:04;2.20;99.90
21568;DHT22;10944;42.590;12.630;2023-01-29T00:14:31;2.20;99.90
21568;DHT22;10944;42.590;12.630;2023-01-29T00:16:57;2.40;99.90
21568;DHT22;10944;42.590;12.630;2023-01-29T00:19:23;2.40;99.90
21568;DHT22;10944;42.590;12.630;2023-01-29T00:21:48;2.30;99.90
21568;DHT22;10944;42.590;12.630;2023-01-29T00:24:14;2.40;99.90
21568;DHT22;10944;42.590;12.630;2023-01-29T00:26:40;2.20;99.90
21568;DHT22;10944;42.590;12.630;2023-01-29T00:29:07;2.20;99.90
21568;DHT22;10944;42.590;12.630;2023-01-29T00:31:32;2.20;99.90
21568;DHT22;10944;42.590;12.630;2023-01-29T00:33:58;2.00;99.90
21568;DHT22;10944;42.590;12.630;2023-01-29T00:36:25;2.10;99.90
21568;DHT22;10944;42.590;12.630;2023-01-29T00:38:55;2.40;99.90
21568;DHT22;10944;42.590;12.630;2023-01-29T00:41:27;2.40;99.90
21568;DHT22;10944;42.590;12.630;2023-01-29T00:44:11;2.50;99.90
21568;DHT22;10944;42.590;12.630;2023-01-29T00:46:55;2.70;99.90
21568;DHT22;10944;42.590;12.630;2023-01-29T00:49:21;2.40;99.90
21568;DHT22;10944;42.590;12.630;2023-01-29T00:51:47;2.30;99.90
21568;DHT22;10944;42.590;12.630;2023-01-29T00:54:33;2.10;99.90
21568;DHT22;10944;42.590;12.630;2023-01-29T00:56:59;2.00;99.90
21568;DHT22;10944;42.590;12.630;2023-01-29T00:59:25;1.90;99.90
21568;DHT22;10944;42.590;12.630;2023-01-29T01:01:51;2.00;99.90
21568;DHT22;10944;42.590;12.630;2023-01-29T01:04:35;2.10;99.90
21568;DHT22;10944;42.590;12.630;2023-01-29T01:07:00;2.50;99.90
21568;DHT22;10944;42.590;12.630;2023-01-29T01:09:26;2.60;99.90
21568;DHT22;10944;42.590;12.630;2023-01-29T01:12:10;2.60;99.90
21568;DHT22;10944;42.590;12.630;2023-01-29T01:14:35;2.40;99.90
21568;DHT22;10944;42.590;12.630;2023-01-29T01:17:01;2.60;99.90
21568;DHT22;10944;42.590;12.630;2023-01-29T01:19:27;2.60;99.90
21568;DHT22;10944;42.590;12.630;2023-01-29T01:21:52;2.50;99.90
21568;DHT22;10944;42.590;12.630;2023-01-29T01:24:18;2.60;99.90
21568;DHT22;10944;42.590;12.630;2023-01-29T01:26:45;2.40;99.90
21568;DHT22;10944;42.590;12.630;2023-01-29T01:29:11;2.30;99.90
21568;DHT22;10944;42.590;12.630;2023-01-29T01:31:37;2.30;99.90
21568;DHT22;10944;42.590;12.630;2023-01-29T01:34:03;2.20;99.90
21568;DHT22;10944;42.590;12.630;2023-01-29T01:36:28;2.10;99.90
21568;DHT22;10944;42.590;12.630;2023-01-29T01:38:54;2.10;99.90
21568;DHT22;10944;42.590;12.630;2023-01-29T01:41:21;2.10;99.90
21568;DHT22;10944;42.590;12.630;2023-01-29T01:43:58;2.50;99.90
21568;DHT22;10944;42.590;12.630;2023-01-29T01:46:27;2.80;99.90
21568;DHT22;10944;42.590;12.630;2023-01-29T01:49:13;2.80;99.90
21568;DHT22;10944;42.590;12.630;2023-01-29T01:51:43;2.90;99.90
21568;DHT22;10944;42.590;12.630;2023-01-29T01:54:31;2.90;99.90
21568;DHT22;10944;42.590;12.630;2023-01-29T01:57:02;2.80;99.90
21568;DHT22;10944;42.590;12.630;2023-01-29T01:59:47;2.80;99.90
21568;DHT22;10944;42.590;12.630;2023-01-29T02:02:15;2.80;99.90
21568;DHT22;10944;42.590;12.630;2023-01-29T02:05:00;2.70;99.90
21568;DHT22;10944;42.590;12.630;2023-01-29T02:07:47;2.50;99.90
21568;DHT22;10944;42.590;12.630;2023-01-29T02:10:40;2.70;99.90
21568;DHT22;10944;42.590;12.630;2023-01-29T02:13:07;3.10;99.60
21568;DHT22;10944;42.590;12.630;2023-01-29T02:15:33;3.20;99.90
21568;DHT22;10944;42.590;12.630;2023-01-29T02:17:58;3.00;99.90
21568;DHT22;10944;42.590;12.630;2023-01-29T02:20:27;2.80;99.90
21568;DHT22;10944;42.590;12.630;2023-01-29T02:28:15;2.30;99.90
21568;DHT22;10944;42.590;12.630;2023-01-29T02:44:07;1.60;99.90
21568;DHT22;10944;42.590;12.630;2023-01-29T02:46:51;1.90;99.90
21568;DHT22;10944;42.590;12.630;2023-01-29T02:49:40;2.30;99.90
21568;DHT22;10944;42.590;12.630;2023-01-29T02:52:24;2.80;99.90
21568;DHT22;10944;42.590;12.630;2023-01-29T02:55:11;3.00;99.90
21568;DHT22;10944;42.590;12.630;2023-01-29T02:57:42;3.00;99.90
21568;DHT22;10944;42.590;12.630;2023-01-29T03:00:10;2.90;99.90
21568;DHT22;10944;42.590;12.630;2023-01-29T03:08:27;2.40;99.90
21568;DHT22;10944;42.590;12.630;2023-01-29T03:11:05;2.30;99.90
21568;DHT22;10944;42.590;12.630;2023-01-29T03:14:19;2.20;99.90
21568;DHT22;10944;42.590;12.630;2023-01-29T03:16:41;2.10;99.90
21568;DHT22;10944;42.590;12.630;2023-01-29T03:19:21;2.00;99.90
21568;DHT22;10944;42.590;12.630;2023-01-29T03:21:51;1.90;99.90
21568;DHT22;10944;42.590;12.630;2023-01-29T03:24:37;2.00;99.90
21568;DHT22;10944;42.590;12.630;2023-01-29T03:27:40;1.90;99.90
21568;DHT22;10944;42.590;12.630;2023-01-29T03:30:27;1.70;99.90
21568;DHT22;10944;42.590;12.630;2023-01-29T03:33:14;1.40;99.90
21568;DHT22;10944;42.590;12.630;2023-01-29T03:35:50;1.30;99.90
21568;DHT22;10944;42.590;12.630;2023-01-29T03:38:19;1.20;99.90
21568;DHT22;10944;42.590;12.630;2023-01-29T03:40:58;1.20;99.90
21568;DHT22;10944;42.590;12.630;2023-01-29T03:46:31;1.20;99.90
21568;DHT22;10944;42.590;12.630;2023-01-29T03:49:14;1.20;99.90
21568;DHT22;10944;42.590;12.630;2023-01-29T03:51:59;1.30;99.90
21568;DHT22;10944;42.590;12.630;2023-01-29T03:54:43;1.30;99.90
21568;DHT22;10944;42.590;12.630;2023-01-29T03:57:34;1.30;99.90
21568;DHT22;10944;42.590;12.630;2023-01-29T04:00:27;1.20;99.90
21568;DHT22;10944;42.590;12.630;2023-01-29T04:05:30;0.90;99.90
21568;DHT22;10944;42.590;12.630;2023-01-29T04:08:04;1.00;99.90
21568;DHT22;10944;42.590;12.630;2023-01-29T04:10:33;1.10;99.90
21568;DHT22;10944;42.590;12.630;2023-01-29T04:13:07;1.10;99.90
21568;DHT22;10944;42.590;12.630;2023-01-29T04:15:37;1.20;99.90
21568;DHT22;10944;42.590;12.630;2023-01-29T04:18:04;1.20;99.90
21568;DHT22;10944;42.590;12.630;2023-01-29T04:20:30;1.10;99.90
21568;DHT22;10944;42.590;12.630;2023-01-29T04:22:55;1.20;99.90
21568;DHT22;10944;42.590;12.630;2023-01-29T04:25:23;1.10;99.90
21568;DHT22;10944;42.590;12.630;2023-01-29T04:31:01;1.10;99.90
21568;DHT22;10944;42.590;12.630;2023-01-29T04:33:43;1.00;99.90
21568;DHT22;10944;42.590;12.630;2023-01-29T04:39:11;1.00;99.90
21568;DHT22;10944;42.590;12.630;2023-01-29T04:42:09;1.00;99.90
21568;DHT22;10944;42.590;12.630;2023-01-29T04:44:49;1.00;99.90
21568;DHT22;10944;42.590;12.630;2023-01-29T04:50:31;0.90;99.90
21568;DHT22;10944;42.590;12.630;2023-01-29T04:53:06;1.00;99.90
21568;DHT22;10944;42.590;12.630;2023-01-29T04:55:48;1.10;99.90
21568;DHT22;10944;42.590;12.630;2023-01-29T04:58:33;1.30;99.90
21568;DHT22;10944;42.590;12.630;2023-01-29T05:01:04;1.30;99.90
21568;DHT22;10944;42.590;12.630;2023-01-29T05:03:31;1.40;99.90
21568;DHT22;10944;42.590;12.630;2023-01-29T05:05:59;1.50;99.90
21568;DHT22;10944;42.590;12.630;2023-01-29T05:08:27;1.80;99.90
21568;DHT22;10944;42.590;12.630;2023-01-29T05:10:54;1.90;99.90
21568;DHT22;10944;42.590;12.630;2023-01-29T05:13:22;1.80;99.90
21568;DHT22;10944;42.590;12.630;2023-01-29T05:15:58;1.50;99.90
21568;DHT22;10944;42.590;12.630;2023-01-29T05:18:24;1.50;99.90
21568;DHT22;10944;42.590;12.630;2023-01-29T05:20:50;1.40;99.90
21568;DHT22;10944;42.590;12.630;2023-01-29T05:23:22;1.30;99.90
21568;DHT22;10944;42.590;12.630;2023-01-29T05:25:49;1.30;99.90
21568;DHT22;10944;42.590;12.630;2023-01-29T05:28:16;1.30;99.90
21568;DHT22;10944;42.590;12.630;2023-01-29T05:30:46;1.20;99.90
21568;DHT22;10944;42.590;12.630;2023-01-29T05:35:46;1.10;99.90
21568;DHT22;10944;42.590;12.630;2023-01-29T05:38:13;1.20;99.90
21568;DHT22;10944;42.590;12.630;2023-01-29T05:40:39;1.20;99.90
21568;DHT22;10944;42.590;12.630;2023-01-29T05:43:11;1.30;99.90
21568;DHT22;10944;42.590;12.630;2023-01-29T05:45:37;1.20;99.90
21568;DHT22;10944;42.590;12.630;2023-01-29T05:48:03;1.10;99.90
21568;DHT22;10944;42.590;12.630;2023-01-29T05:50:28;0.90;99.90
21568;DHT22;10944;42.590;12.630;2023-01-29T05:52:58;0.90;99.90
21568;DHT22;10944;42.590;12.630;2023-01-29T05:55:25;0.90;99.90
21568;DHT22;10944;42.590;12.630;2023-01-29T05:57:51;0.90;99.90
21568;DHT22;10944;42.590;12.630;2023-01-29T06:00:17;0.90;99.90
21568;DHT22;10944;42.590;12.630;2023-01-29T06:02:43;0.90;99.90
21568;DHT22;10944;42.590;12.630;2023-01-29T06:05:09;0.90;99.90
21568;DHT22;10944;42.590;12.630;2023-01-29T06:07:34;1.00;99.90
21568;DHT22;10944;42.590;12.630;2023-01-29T06:10:04;1.00;99.90
21568;DHT22;10944;42.590;12.630;2023-01-29T06:12:29;1.00;99.90
21568;DHT22;10944;42.590;12.630;2023-01-29T06:14:55;1.10;99.90
21568;DHT22;10944;42.590;12.630;2023-01-29T06:17:21;1.00;99.90
21568;DHT22;10944;42.590;12.630;2023-01-29T06:19:46;1.10;99.90
21568;DHT22;10944;42.590;12.630;2023-01-29T06:22:12;1.00;99.90
21568;DHT22;10944;42.590;12.630;2023-01-29T06:24:38;1.00;99.90
21568;DHT22;10944;42.590;12.630;2023-01-29T06:27:03;1.00;99.90
21568;DHT22;10944;42.590;12.630;2023-01-29T06:29:29;0.90;99.90
21568;DHT22;10944;42.590;12.630;2023-01-29T06:31:55;0.90;99.90
21568;DHT22;10944;42.590;12.630;2023-01-29T06:34:20;0.80;99.90
21568;DHT22;10944;42.590;12.630;2023-01-29T06:36:46;0.70;99.90
21568;DHT22;10944;42.590;12.630;2023-01-29T06:39:11;0.70;99.90
21568;DHT22;10944;42.590;12.630;2023-01-29T06:41:37;0.70;99.90
21568;DHT22;10944;42.590;12.630;2023-01-29T06:44:03;0.60;99.90
21568;DHT22;10944;42.590;12.630;2023-01-29T06:46:29;0.60;99.90
21568;DHT22;10944;42.590;12.630;2023-01-29T06:48:57;0.70;99.90
21568;DHT22;10944;42.590;12.630;2023-01-29T06:51:24;0.70;99.90
21568;DHT22;10944;42.590;12.630;2023-01-29T06:53:50;0.80;99.90
21568;DHT22;10944;42.590;12.630;2023-01-29T06:56:16;0.80;99.90
21568;DHT22;10944;42.590;12.630;2023-01-29T06:58:41;0.90;99.90
21568;DHT22;10944;42.590;12.630;2023-01-29T07:01:10;1.00;99.90
21568;DHT22;10944;42.590;12.630;2023-01-29T07:03:36;1.00;99.90
21568;DHT22;10944;42.590;12.630;2023-01-29T07:06:02;1.20;99.90
21568;DHT22;10944;42.590;12.630;2023-01-29T07:08:27;1.30;99.90
21568;DHT22;10944;42.590;12.630;2023-01-29T07:10:58;1.40;99.90
21568;DHT22;10944;42.590;12.630;2023-01-29T07:13:24;1.50;99.90
21568;DHT22;10944;42.590;12.630;2023-01-29T07:15:50;1.60;99.90
21568;DHT22;10944;42.590;12.630;2023-01-29T07:18:15;1.80;99.90
21568;DHT22;10944;42.590;12.630;2023-01-29T07:20:41;1.80;99.90
21568;DHT22;10944;42.590;12.630;2023-01-29T07:23:13;1.80;99.90
21568;DHT22;10944;42.590;12.630;2023-01-29T07:25:40;1.90;99.90
21568;DHT22;10944;42.590;12.630;2023-01-29T07:28:06;1.90;99.90
21568;DHT22;10944;42.590;12.630;2023-01-29T07:30:32;2.00;99.90
21568;DHT22;10944;42.590;12.630;2023-01-29T07:33:05;2.10;99.90
21568;DHT22;10944;42.590;12.630;2023-01-29T07:35:39;2.20;99.90
21568;DHT22;10944;42.590;12.630;2023-01-29T07:38:05;2.30;99.90
21568;DHT22;10944;42.590;12.630;2023-01-29T07:40:31;2.40;99.90
21568;DHT22;10944;42.590;12.630;2023-01-29T07:43:01;2.50;99.90
21568;DHT22;10944;42.590;12.630;2023-01-29T07:45:28;2.40;99.90
21568;DHT22;10944;42.590;12.630;2023-01-29T07:47:55;2.60;99.90
21568;DHT22;10944;42.590;12.630;2023-01-29T07:50:24;2.80;99.90
21568;DHT22;10944;42.590;12.630;2023-01-29T07:52:52;2.80;99.90
21568;DHT22;10944;42.590;12.630;2023-01-29T07:55:19;3.00;99.90
21568;DHT22;10944;42.590;12.630;2023-01-29T07:57:45;3.00;99.90
21568;DHT22;10944;42.590;12.630;2023-01-29T08:00:12;3.10;99.90
21568;DHT22;10944;42.590;12.630;2023-01-29T08:02:39;3.20;99.90
21568;DHT22;10944;42.590;12.630;2023-01-29T08:05:06;3.20;99.90
21568;DHT22;10944;42.590;12.630;2023-01-29T08:07:31;3.20;99.90
21568;DHT22;10944;42.590;12.630;2023-01-29T08:09:57;3.30;99.90
21568;DHT22;10944;42.590;12.630;2023-01-29T08:12:23;3.30;99.90
21568;DHT22;10944;42.590;12.630;2023-01-29T08:14:49;3.30;99.90
21568;DHT22;10944;42.590;12.630;2023-01-29T08:17:15;3.30;99.90
21568;DHT22;10944;42.590;12.630;2023-01-29T08:19:40;3.40;99.90
21568;DHT22;10944;42.590;12.630;2023-01-29T08:22:06;3.50;99.90
21568;DHT22;10944;42.590;12.630;2023-01-29T08:27:55;3.60;99.90
21568;DHT22;10944;42.590;12.630;2023-01-29T08:30:30;3.60;99.90
21568;DHT22;10944;42.590;12.630;2023-01-29T08:32:56;3.70;99.90
21568;DHT22;10944;42.590;12.630;2023-01-29T08:35:23;3.80;99.90
21568;DHT22;10944;42.590;12.630;2023-01-29T08:37:52;3.80;99.90
21568;DHT22;10944;42.590;12.630;2023-01-29T08:40:18;3.80;99.90
21568;DHT22;10944;42.590;12.630;2023-01-29T08:42:44;3.90;99.90
21568;DHT22;10944;42.590;12.630;2023-01-29T08:45:10;3.90;99.90
21568;DHT22;10944;42.590;12.630;2023-01-29T08:47:36;4.10;99.90
21568;DHT22;10944;42.590;12.630;2023-01-29T08:50:02;4.10;99.90
21568;DHT22;10944;42.590;12.630;2023-01-29T08:52:27;4.10;99.90
21568;DHT22;10944;42.590;12.630;2023-01-29T08:54:53;4.20;99.90
21568;DHT22;10944;42.590;12.630;2023-01-29T08:57:18;4.10;99.90
21568;DHT22;10944;42.590;12.630;2023-01-29T08:59:44;4.20;99.90
21568;DHT22;10944;42.590;12.630;2023-01-29T09:02:10;4.20;99.90
21568;DHT22;10944;42.590;12.630;2023-01-29T09:04:36;4.30;99.90
21568;DHT22;10944;42.590;12.630;2023-01-29T09:07:02;4.40;99.90
21568;DHT22;10944;42.590;12.630;2023-01-29T09:09:27;4.50;99.90
21568;DHT22;10944;42.590;12.630;2023-01-29T09:11:53;4.50;99.90
21568;DHT22;10944;42.590;12.630;2023-01-29T09:14:18;4.70;99.90
21568;DHT22;10944;42.590;12.630;2023-01-29T09:16:44;4.70;99.90
21568;DHT22;10944;42.590;12.630;2023-01-29T09:19:10;4.90;99.90
21568;DHT22;10944;42.590;12.630;2023-01-29T09:21:36;4.80;99.70
21568;DHT22;10944;42.590;12.630;2023-01-29T09:24:01;4.80;99.20
21568;DHT22;10944;42.590;12.630;2023-01-29T09:26:27;4.80;99.70
21568;DHT22;10944;42.590;12.630;2023-01-29T09:28:54;4.90;99.50
21568;DHT22;10944;42.590;12.630;2023-01-29T09:31:19;5.10;99.40
21568;DHT22;10944;42.590;12.630;2023-01-29T09:33:45;5.20;99.70
21568;DHT22;10944;42.590;12.630;2023-01-29T09:36:11;5.20;99.30
21568;DHT22;10944;42.590;12.630;2023-01-29T09:38:36;5.30;99.60
21568;DHT22;10944;42.590;12.630;2023-01-29T09:42:00;5.40;99.70
21568;DHT22;10944;42.590;12.630;2023-01-29T09:44:09;5.50;99.00
21568;DHT22;10944;42.590;12.630;2023-01-29T09:46:40;5.50;99.20
21568;DHT22;10944;42.590;12.630;2023-01-29T09:49:30;5.50;99.30
21568;DHT22;10944;42.590;12.630;2023-01-29T09:55:24;5.60;99.00
21568;DHT22;10944;42.590;12.630;2023-01-29T09:57:55;5.70;98.90
21568;DHT22;10944;42.590;12.630;2023-01-29T10:00:58;5.80;98.50
21568;DHT22;10944;42.590;12.630;2023-01-29T10:06:27;6.00;98.60
21568;DHT22;10944;42.590;12.630;2023-01-29T10:08:59;6.10;98.10
21568;DHT22;10944;42.590;12.630;2023-01-29T10:17:08;6.40;99.10
21568;DHT22;10944;42.590;12.630;2023-01-29T10:20:00;6.50;98.10
21568;DHT22;10944;42.590;12.630;2023-01-29T10:25:17;6.50;99.00
21568;DHT22;10944;42.590;12.630;2023-01-29T10:27:56;6.60;98.30
21568;DHT22;10944;42.590;12.630;2023-01-29T10:30:37;6.70;98.40
21568;DHT22;10944;42.590;12.630;2023-01-29T10:33:05;6.70;98.40
21568;DHT22;10944;42.590;12.630;2023-01-29T10:35:43;6.80;97.70
21568;DHT22;10944;42.590;12.630;2023-01-29T10:41:04;6.80;97.70
21568;DHT22;10944;42.590;12.630;2023-01-29T10:49:07;7.10;96.80
21568;DHT22;10944;42.590;12.630;2023-01-29T10:52:03;7.20;97.10
21568;DHT22;10944;42.590;12.630;2023-01-29T11:00:01;7.30;96.30
21568;DHT22;10944;42.590;12.630;2023-01-29T11:02:33;7.30;96.40
21568;DHT22;10944;42.590;12.630;2023-01-29T11:04:58;7.40;96.50
21568;DHT22;10944;42.590;12.630;2023-01-29T11:07:24;7.50;96.90
21568;DHT22;10944;42.590;12.630;2023-01-29T11:10:08;7.70;95.80
21568;DHT22;10944;42.590;12.630;2023-01-29T11:12:36;7.80;95.90
21568;DHT22;10944;42.590;12.630;2023-01-29T11:15:11;7.80;96.20
21568;DHT22;10944;42.590;12.630;2023-01-29T11:17:38;7.80;96.20
21568;DHT22;10944;42.590;12.630;2023-01-29T11:20:11;7.80;95.20
21568;DHT22;10944;42.590;12.630;2023-01-29T11:22:53;7.90;95.60
21568;DHT22;10944;42.590;12.630;2023-01-29T11:25:20;7.90;95.90
21568;DHT22;10944;42.590;12.630;2023-01-29T11:27:55;7.90;95.60
21568;DHT22;10944;42.590;12.630;2023-01-29T11:30:25;8.10;94.50
21568;DHT22;10944;42.590;12.630;2023-01-29T11:32:59;8.20;94.40
21568;DHT22;10944;42.590;12.630;2023-01-29T11:35:30;8.20;95.10
21568;DHT22;10944;42.590;12.630;2023-01-29T11:38:27;8.20;95.10
21568;DHT22;10944;42.590;12.630;2023-01-29T11:41:17;8.30;94.60
21568;DHT22;10944;42.590;12.630;2023-01-29T11:43:46;8.30;94.10
21568;DHT22;10944;42.590;12.630;2023-01-29T11:46:14;8.30;94.20
21568;DHT22;10944;42.590;12.630;2023-01-29T11:48:46;8.40;94.00
21568;DHT22;10944;42.590;12.630;2023-01-29T11:51:26;8.40;95.00
21568;DHT22;10944;42.590;12.630;2023-01-29T11:53:57;8.40;94.10
21568;DHT22;10944;42.590;12.630;2023-01-29T11:56:29;8.50;94.40
21568;DHT22;10944;42.590;12.630;2023-01-29T11:58:57;8.60;94.40
21568;DHT22;10944;42.590;12.630;2023-01-29T12:01:33;8.70;93.60
21568;DHT22;10944;42.590;12.630;2023-01-29T12:04:01;8.90;93.40
21568;DHT22;10944;42.590;12.630;2023-01-29T12:06:36;9.00;93.20
21568;DHT22;10944;42.590;12.630;2023-01-29T12:09:12;8.90;92.30
21568;DHT22;10944;42.590;12.630;2023-01-29T12:11:39;9.00;92.20
21568;DHT22;10944;42.590;12.630;2023-01-29T12:14:31;9.10;92.70
21568;DHT22;10944;42.590;12.630;2023-01-29T12:17:03;9.30;92.40
21568;DHT22;10944;42.590;12.630;2023-01-29T12:19:56;9.40;91.40
21568;DHT22;10944;42.590;12.630;2023-01-29T12:25:10;9.40;91.70
21568;DHT22;10944;42.590;12.630;2023-01-29T12:28:03;9.40;92.30
21568;DHT22;10944;42.590;12.630;2023-01-29T12:33:38;9.50;91.60
21568;DHT22;10944;42.590;12.630;2023-01-29T12:38:43;9.50;91.70
21568;DHT22;10944;42.590;12.630;2023-01-29T12:43:49;9.50;91.40
21568;DHT22;10944;42.590;12.630;2023-01-29T12:46:28;9.60;91.30
21568;DHT22;10944;42.590;12.630;2023-01-29T12:48:57;9.60;91.40
21568;DHT22;10944;42.590;12.630;2023-01-29T12:51:28;9.80;90.70
21568;DHT22;10944;42.590;12.630;2023-01-29T12:54:08;9.70;90.60
21568;DHT22;10944;42.590;12.630;2023-01-29T12:56:42;9.60;90.40
21568;DHT22;10944;42.590;12.630;2023-01-29T12:59:42;9.70;90.60
21568;DHT22;10944;42.590;12.630;2023-01-29T13:05:00;9.80;91.20
21568;DHT22;10944;42.590;12.630;2023-01-29T13:07:32;9.80;90.70
21568;DHT22;10944;42.590;12.630;2023-01-29T13:10:11;9.70;89.60
21568;DHT22;10944;42.590;12.630;2023-01-29T13:12:50;9.60;90.80
21568;DHT22;10944;42.590;12.630;2023-01-29T13:17:52;9.70;90.20
21568;DHT22;10944;42.590;12.630;2023-01-29T13:20:37;9.60;90.40
21568;DHT22;10944;42.590;12.630;2023-01-29T13:23:21;9.60;90.60
21568;DHT22;10944;42.590;12.630;2023-01-29T13:25:53;9.60;90.60
21568;DHT22;10944;42.590;12.630;2023-01-29T13:28:25;9.60;90.60
21568;DHT22;10944;42.590;12.630;2023-01-29T13:33:35;9.60;90.60
21568;DHT22;10944;42.590;12.630;2023-01-29T13:36:01;9.70;90.60
21568;DHT22;10944;42.590;12.630;2023-01-29T13:38:29;9.70;90.90
21568;DHT22;10944;42.590;12.630;2023-01-29T13:41:02;9.60;91.10
21568;DHT22;10944;42.590;12.630;2023-01-29T13:43:39;9.60;90.60
21568;DHT22;10944;42.590;12.630;2023-01-29T13:46:11;9.60;91.30
21568;DHT22;10944;42.590;12.630;2023-01-29T13:48:44;9.50;90.60
21568;DHT22;10944;42.590;12.630;2023-01-29T13:51:14;9.40;91.00
21568;DHT22;10944;42.590;12.630;2023-01-29T13:53:56;9.30;91.10
21568;DHT22;10944;42.590;12.630;2023-01-29T13:58:58;9.20;91.10
21568;DHT22;10944;42.590;12.630;2023-01-29T14:06:51;9.30;90.80
21568;DHT22;10944;42.590;12.630;2023-01-29T14:15:02;9.30;90.90
21568;DHT22;10944;42.590;12.630;2023-01-29T14:17:30;9.30;91.10
21568;DHT22;10944;42.590;12.630;2023-01-29T14:20:01;9.20;91.30
21568;DHT22;10944;42.590;12.630;2023-01-29T14:22:28;9.30;91.20
21568;DHT22;10944;42.590;12.630;2023-01-29T14:24:59;9.20;91.40
21568;DHT22;10944;42.590;12.630;2023-01-29T14:27:26;9.10;91.10
21568;DHT22;10944;42.590;12.630;2023-01-29T14:30:06;9.20;91.30
21568;DHT22;10944;42.590;12.630;2023-01-29T14:32:32;9.20;91.50
21568;DHT22;10944;42.590;12.630;2023-01-29T14:35:09;9.20;91.10
21568;DHT22;10944;42.590;12.630;2023-01-29T14:37:40;9.10;90.90
21568;DHT22;10944;42.590;12.630;2023-01-29T14:40:20;9.10;91.30
21568;DHT22;10944;42.590;12.630;2023-01-29T14:42:57;9.10;91.40
21568;DHT22;10944;42.590;12.630;2023-01-29T14:45:29;9.00;91.00
21568;DHT22;10944;42.590;12.630;2023-01-29T14:55:29;8.90;91.40
21568;DHT22;10944;42.590;12.630;2023-01-29T14:58:00;8.90;91.90
21568;DHT22;10944;42.590;12.630;2023-01-29T15:00:36;8.80;92.00
21568;DHT22;10944;42.590;12.630;2023-01-29T15:03:10;8.70;91.40
21568;DHT22;10944;42.590;12.630;2023-01-29T15:05:38;8.70;92.10
21568;DHT22;10944;42.590;12.630;2023-01-29T15:08:15;8.60;92.50
21568;DHT22;10944;42.590;12.630;2023-01-29T15:10:51;8.70;91.90
21568;DHT22;10944;42.590;12.630;2023-01-29T15:14:34;8.60;91.30
21568;DHT22;10944;42.590;12.630;2023-01-29T15:19:41;8.50;91.70
21568;DHT22;10944;42.590;12.630;2023-01-29T15:22:17;8.50;92.20
21568;DHT22;10944;42.590;12.630;2023-01-29T15:24:45;8.50;92.30
21568;DHT22;10944;42.590;12.630;2023-01-29T15:27:18;8.50;91.90
21568;DHT22;10944;42.590;12.630;2023-01-29T15:29:58;8.40;92.30
21568;DHT22;10944;42.590;12.630;2023-01-29T15:32:34;8.40;92.10
21568;DHT22;10944;42.590;12.630;2023-01-29T15:35:00;8.20;92.30
21568;DHT22;10944;42.590;12.630;2023-01-29T15:37:34;8.10;92.00
21568;DHT22;10944;42.590;12.630;2023-01-29T15:40:00;8.10;92.10
21568;DHT22;10944;42.590;12.630;2023-01-29T15:42:27;8.00;92.20
21568;DHT22;10944;42.590;12.630;2023-01-29T15:44:54;7.90;92.10
21568;DHT22;10944;42.590;12.630;2023-01-29T15:47:30;7.80;92.10
21568;DHT22;10944;42.590;12.630;2023-01-29T15:49:56;7.70;92.40
21568;DHT22;10944;42.590;12.630;2023-01-29T15:52:26;7.60;92.40
21568;DHT22;10944;42.590;12.630;2023-01-29T15:54:55;7.50;93.00
21568;DHT22;10944;42.590;12.630;2023-01-29T15:57:32;7.40;92.40
21568;DHT22;10944;42.590;12.630;2023-01-29T16:00:00;7.30;92.80
21568;DHT22;10944;42.590;12.630;2023-01-29T16:02:34;7.20;92.80
21568;DHT22;10944;42.590;12.630;2023-01-29T16:05:24;7.10;92.60
21568;DHT22;10944;42.590;12.630;2023-01-29T16:07:50;7.00;92.70
21568;DHT22;10944;42.590;12.630;2023-01-29T16:10:25;7.00;92.70
21568;DHT22;10944;42.590;12.630;2023-01-29T16:12:52;6.90;92.90
21568;DHT22;10944;42.590;12.630;2023-01-29T16:15:38;6.80;92.90
21568;DHT22;10944;42.590;12.630;2023-01-29T16:18:24;6.70;92.90
21568;DHT22;10944;42.590;12.630;2023-01-29T16:20:52;6.80;92.90
21568;DHT22;10944;42.590;12.630;2023-01-29T16:23:21;6.80;92.90
21568;DHT22;10944;42.590;12.630;2023-01-29T16:25:49;6.70;93.00
21568;DHT22;10944;42.590;12.630;2023-01-29T16:28:16;6.60;93.20
21568;DHT22;10944;42.590;12.630;2023-01-29T16:30:42;6.70;93.40
21568;DHT22;10944;42.590;12.630;2023-01-29T16:33:12;6.60;93.40
21568;DHT22;10944;42.590;12.630;2023-01-29T16:35:38;6.50;93.60
21568;DHT22;10944;42.590;12.630;2023-01-29T16:38:16;6.50;93.80
21568;DHT22;10944;42.590;12.630;2023-01-29T16:41:14;6.40;93.80
21568;DHT22;10944;42.590;12.630;2023-01-29T16:48:58;6.40;93.80
21568;DHT22;10944;42.590;12.630;2023-01-29T16:51:36;6.50;93.80
21568;DHT22;10944;42.590;12.630;2023-01-29T16:54:11;6.50;93.80
21568;DHT22;10944;42.590;12.630;2023-01-29T16:56:38;6.40;93.90
21568;DHT22;10944;42.590;12.630;2023-01-29T16:59:04;6.40;94.50
21568;DHT22;10944;42.590;12.630;2023-01-29T17:01:32;6.30;94.30
21568;DHT22;10944;42.590;12.630;2023-01-29T17:04:10;6.40;94.10
21568;DHT22;10944;42.590;12.630;2023-01-29T17:06:40;6.30;94.30
21568;DHT22;10944;42.590;12.630;2023-01-29T17:09:07;6.30;94.90
21568;DHT22;10944;42.590;12.630;2023-01-29T17:11:37;6.30;94.60
21568;DHT22;10944;42.590;12.630;2023-01-29T17:14:06;6.20;94.70
21568;DHT22;10944;42.590;12.630;2023-01-29T17:16:34;6.00;95.10
21568;DHT22;10944;42.590;12.630;2023-01-29T17:19:00;6.10;95.20
21568;DHT22;10944;42.590;12.630;2023-01-29T17:21:32;6.10;95.20
21568;DHT22;10944;42.590;12.630;2023-01-29T17:23:58;6.20;94.40
21568;DHT22;10944;42.590;12.630;2023-01-29T17:26:24;6.20;95.00
21568;DHT22;10944;42.590;12.630;2023-01-29T17:28:50;6.00;94.90
21568;DHT22;10944;42.590;12.630;2023-01-29T17:31:17;6.00;95.50
21568;DHT22;10944;42.590;12.630;2023-01-29T17:33:43;5.70;95.80
21568;DHT22;10944;42.590;12.630;2023-01-29T17:36:16;5.50;96.40
21568;DHT22;10944;42.590;12.630;2023-01-29T17:38:42;5.40;96.40
21568;DHT22;10944;42.590;12.630;2023-01-29T17:41:14;5.60;95.90
21568;DHT22;10944;42.590;12.630;2023-01-29T17:43:42;5.60;96.30
21568;DHT22;10944;42.590;12.630;2023-01-29T17:46:13;5.80;96.20
21568;DHT22;10944;42.590;12.630;2023-01-29T17:48:39;5.80;95.40
21568;DHT22;10944;42.590;12.630;2023-01-29T17:51:05;5.60;96.30
21568;DHT22;10944;42.590;12.630;2023-01-29T17:53:34;5.20;97.10
21568;DHT22;10944;42.590;12.630;2023-01-29T17:55:59;5.00;97.90
21568;DHT22;10944;42.590;12.630;2023-01-29T17:58:26;4.80;98.10
21568;DHT22;10944;42.590;12.630;2023-01-29T18:00:52;4.60;98.70